createdAt,value
2018-05-26T00:01:25.517Z,21.05
2018-05-26T00:03:53.708Z,21.01
2018-05-26T00:06:21.874Z,20.99
2018-05-26T00:08:50.052Z,20.94
2018-05-26T00:11:18.267Z,20.92
2018-05-26T00:13:46.527Z,20.89
2018-05-26T00:16:14.701Z,20.87
2018-05-26T00:18:42.849Z,20.84
2018-05-26T00:21:11.041Z,20.81
2018-05-26T00:23:39.201Z,20.79
2018-05-26T00:26:07.393Z,20.79
2018-05-26T00:28:35.576Z,20.79
2018-05-26T00:31:03.728Z,20.76
2018-05-26T00:33:31.927Z,20.73
2018-05-26T00:36:00.084Z,20.71
2018-05-26T00:38:28.283Z,20.67
2018-05-26T00:40:56.544Z,20.64
2018-05-26T00:43:24.731Z,20.64
2018-05-26T00:45:52.910Z,20.61
2018-05-26T00:48:21.084Z,20.57
2018-05-26T00:50:49.297Z,20.57
2018-05-26T00:53:17.486Z,20.54
2018-05-26T00:55:45.681Z,20.53
2018-05-26T00:58:13.896Z,20.52
2018-05-26T01:00:42.077Z,20.52
2018-05-26T01:03:10.260Z,20.51
2018-05-26T01:05:38.433Z,20.47
2018-05-26T01:08:06.643Z,20.49
2018-05-26T01:10:34.790Z,20.47
2018-05-26T01:13:02.976Z,20.48
2018-05-26T01:15:31.178Z,20.47
2018-05-26T01:17:59.336Z,20.45
2018-05-26T01:20:27.547Z,20.41
2018-05-26T01:22:55.709Z,20.41
2018-05-26T01:25:23.979Z,20.38
2018-05-26T01:27:52.140Z,20.34
2018-05-26T01:30:20.341Z,20.30
2018-05-26T01:32:48.545Z,20.29
2018-05-26T01:35:16.733Z,20.28
2018-05-26T01:37:44.944Z,20.29
2018-05-26T01:40:13.158Z,20.27
2018-05-26T01:42:41.317Z,20.26
2018-05-26T01:45:09.580Z,20.23
2018-05-26T01:47:37.827Z,20.22
2018-05-26T01:50:05.977Z,20.20
2018-05-26T01:52:34.155Z,20.18
2018-05-26T01:55:02.330Z,20.15
2018-05-26T01:57:30.518Z,20.15
2018-05-26T01:59:58.718Z,20.14
2018-05-26T02:02:26.908Z,20.12
2018-05-26T02:04:55.116Z,20.10
2018-05-26T02:07:23.321Z,20.10
2018-05-26T02:09:51.484Z,20.08
2018-05-26T02:12:19.695Z,20.04
2018-05-26T02:14:47.861Z,20.05
2018-05-26T02:17:16.114Z,20.02
2018-05-26T02:19:44.304Z,20.00
2018-05-26T02:22:12.492Z,19.98
2018-05-26T02:24:40.675Z,19.95
2018-05-26T02:27:09.148Z,19.94
2018-05-26T02:29:37.363Z,19.95
2018-05-26T02:32:05.529Z,19.96
2018-05-26T02:34:33.747Z,19.96
2018-05-26T02:37:01.930Z,19.98
2018-05-26T02:39:30.115Z,19.97
2018-05-26T02:41:58.266Z,19.95
2018-05-26T02:44:26.467Z,19.94
2018-05-26T02:46:54.649Z,19.91
2018-05-26T02:49:22.813Z,19.90
2018-05-26T02:51:51.020Z,19.90
2018-05-26T02:54:19.214Z,19.88
2018-05-26T02:56:47.408Z,19.87
2018-05-26T02:59:15.593Z,19.83
2018-05-26T03:01:43.797Z,19.83
2018-05-26T03:04:11.391Z,19.83
2018-05-26T03:06:45.325Z,19.81
2018-05-26T03:09:19.446Z,19.77
2018-05-26T03:11:53.395Z,19.75
2018-05-26T03:14:27.073Z,19.75
2018-05-26T03:16:55.282Z,19.71
2018-05-26T03:19:23.426Z,19.69
2018-05-26T03:21:51.583Z,19.67
2018-05-26T03:24:19.766Z,19.66
2018-05-26T03:26:48.034Z,19.60
2018-05-26T03:29:16.233Z,19.58
2018-05-26T03:31:44.419Z,19.55
2018-05-26T03:34:12.627Z,19.52
2018-05-26T03:36:40.828Z,19.50
2018-05-26T03:39:08.993Z,19.47
2018-05-26T03:41:37.194Z,19.46
2018-05-26T03:44:05.405Z,19.45
2018-05-26T03:46:33.626Z,19.43
2018-05-26T03:49:01.796Z,19.44
2018-05-26T03:51:29.987Z,19.44
2018-05-26T03:53:58.158Z,19.44
2018-05-26T03:56:38.218Z,19.43
2018-05-26T04:02:02.691Z,19.43
2018-05-26T04:04:30.856Z,19.43
2018-05-26T04:06:59.049Z,19.42
2018-05-26T04:09:27.306Z,19.43
2018-05-26T04:11:55.524Z,19.46
2018-05-26T04:14:23.685Z,19.43
2018-05-26T04:16:51.878Z,19.43
2018-05-26T04:19:20.027Z,19.42
2018-05-26T04:21:48.188Z,19.42
2018-05-26T04:24:16.393Z,19.41
2018-05-26T04:26:44.608Z,19.42
2018-05-26T04:29:12.827Z,19.43
2018-05-26T04:31:40.974Z,19.41
2018-05-26T04:34:09.170Z,19.42
2018-05-26T04:36:37.355Z,19.44
2018-05-26T04:39:05.567Z,19.45
2018-05-26T04:41:33.733Z,19.45
2018-05-26T04:44:01.932Z,19.47
2018-05-26T04:46:30.097Z,19.48
2018-05-26T04:48:58.289Z,19.50
2018-05-26T04:51:26.481Z,19.50
2018-05-26T04:53:54.625Z,19.52
2018-05-26T04:56:22.840Z,19.54
2018-05-26T04:58:51.001Z,19.56
2018-05-26T05:01:19.189Z,19.59
2018-05-26T05:03:47.350Z,19.62
2018-05-26T05:06:15.638Z,19.65
2018-05-26T05:08:43.798Z,19.66
2018-05-26T05:11:11.949Z,19.71
2018-05-26T05:13:40.144Z,19.77
2018-05-26T05:16:08.308Z,19.80
2018-05-26T05:18:36.498Z,19.87
2018-05-26T05:21:04.649Z,19.93
2018-05-26T05:23:32.843Z,19.98
2018-05-26T05:26:01.720Z,20.03
2018-05-26T05:28:29.901Z,20.08
2018-05-26T05:30:58.045Z,20.16
2018-05-26T05:33:26.236Z,20.22
2018-05-26T05:35:54.425Z,20.26
2018-05-26T05:38:22.683Z,20.31
2018-05-26T05:40:50.869Z,20.39
2018-05-26T05:43:19.082Z,20.44
2018-05-26T05:45:47.259Z,20.51
2018-05-26T05:48:15.403Z,20.56
2018-05-26T05:50:43.644Z,20.62
2018-05-26T05:53:11.802Z,20.70
2018-05-26T05:55:39.990Z,20.75
2018-05-26T05:58:08.192Z,20.78
2018-05-26T06:00:36.392Z,20.81
2018-05-26T06:03:04.548Z,20.88
2018-05-26T06:05:32.755Z,20.93
2018-05-26T06:08:00.914Z,21.00
2018-05-26T06:10:29.096Z,21.04
2018-05-26T06:12:57.235Z,21.11
2018-05-26T06:15:25.411Z,21.17
2018-05-26T06:17:53.621Z,21.25
2018-05-26T06:20:21.768Z,21.32
2018-05-26T06:22:49.956Z,21.39
2018-05-26T06:25:18.119Z,21.44
2018-05-26T06:27:46.307Z,21.54
2018-05-26T06:30:14.478Z,21.63
2018-05-26T06:32:42.639Z,21.68
2018-05-26T06:35:10.896Z,21.80
2018-05-26T06:37:39.096Z,21.88
2018-05-26T06:40:07.275Z,21.95
2018-05-26T06:42:35.417Z,22.07
2018-05-26T06:45:03.617Z,22.23
2018-05-26T06:47:31.810Z,22.39
2018-05-26T06:49:59.965Z,22.51
2018-05-26T06:52:28.178Z,22.66
2018-05-26T06:54:56.356Z,22.68
2018-05-26T06:57:24.561Z,22.69
2018-05-26T06:59:52.750Z,22.71
2018-05-26T07:02:20.912Z,22.71
2018-05-26T07:04:49.111Z,22.75
2018-05-26T07:07:17.277Z,22.80
2018-05-26T07:09:45.466Z,22.83
2018-05-26T07:12:13.652Z,22.87
2018-05-26T07:14:41.809Z,22.93
2018-05-26T07:17:10.024Z,22.97
2018-05-26T07:19:38.188Z,23.05
2018-05-26T07:22:06.372Z,23.11
2018-05-26T07:24:34.543Z,23.16
2018-05-26T07:27:02.775Z,23.22
2018-05-26T07:29:30.918Z,23.28
2018-05-26T07:31:59.067Z,23.34
2018-05-26T07:34:27.285Z,23.39
2018-05-26T07:36:55.458Z,23.41
2018-05-26T07:39:23.659Z,23.50
2018-05-26T07:41:51.808Z,23.55
2018-05-26T07:44:19.996Z,23.58
2018-05-26T07:46:48.155Z,23.63
2018-05-26T07:49:16.355Z,23.67
2018-05-26T07:51:44.545Z,23.72
2018-05-26T07:54:12.747Z,23.80
2018-05-26T07:56:40.959Z,23.86
2018-05-26T07:59:09.167Z,23.93
2018-05-26T08:01:37.366Z,23.99
2018-05-26T08:04:05.558Z,24.09
2018-05-26T08:06:33.712Z,24.19
2018-05-26T08:09:01.911Z,24.30
2018-05-26T08:11:30.068Z,24.35
2018-05-26T08:13:58.276Z,24.43
2018-05-26T08:16:26.440Z,24.52
2018-05-26T08:18:54.640Z,24.58
2018-05-26T08:21:22.796Z,24.60
2018-05-26T08:23:50.983Z,24.65
2018-05-26T08:26:19.147Z,24.77
2018-05-26T08:28:47.341Z,24.87
2018-05-26T08:31:15.490Z,24.95
2018-05-26T08:33:43.657Z,25.00
2018-05-26T08:36:11.813Z,25.06
2018-05-26T08:38:40.018Z,25.11
2018-05-26T08:41:08.201Z,25.16
2018-05-26T08:43:36.368Z,25.19
2018-05-26T08:46:04.547Z,25.23
2018-05-26T08:48:32.700Z,25.26
2018-05-26T08:51:00.889Z,25.27
2018-05-26T08:53:29.043Z,25.30
2018-05-26T08:55:57.212Z,25.38
2018-05-26T08:58:25.397Z,25.49
2018-05-26T09:00:53.593Z,25.60
2018-05-26T09:03:21.744Z,25.68
2018-05-26T09:05:49.952Z,25.66
2018-05-26T09:08:18.224Z,25.75
2018-05-26T09:10:46.381Z,25.88
2018-05-26T09:13:14.529Z,25.97
2018-05-26T09:15:42.725Z,26.05
2018-05-26T09:18:10.883Z,26.06
2018-05-26T09:20:39.072Z,26.02
2018-05-26T09:23:07.254Z,26.06
2018-05-26T09:25:35.481Z,26.20
2018-05-26T09:28:03.669Z,26.17
2018-05-26T09:30:31.919Z,26.13
2018-05-26T09:33:00.071Z,26.18
2018-05-26T09:35:28.384Z,26.29
2018-05-26T09:37:56.545Z,26.31
2018-05-26T09:40:24.703Z,26.28
2018-05-26T09:42:52.904Z,26.35
2018-05-26T09:45:21.046Z,26.40
2018-05-26T09:47:49.227Z,26.45
2018-05-26T09:50:17.363Z,26.60
2018-05-26T09:52:45.566Z,26.64
2018-05-26T09:55:13.746Z,26.67
2018-05-26T09:57:41.917Z,26.73
2018-05-26T10:00:10.081Z,26.83
2018-05-26T10:02:38.264Z,26.87
2018-05-26T10:05:06.463Z,26.77
2018-05-26T10:07:34.663Z,26.79
2018-05-26T10:10:02.892Z,26.84
2018-05-26T10:12:31.053Z,26.88
2018-05-26T10:14:59.227Z,26.90
2018-05-26T10:17:28.831Z,27.04
2018-05-26T10:19:57.017Z,27.10
2018-05-26T10:22:25.384Z,27.14
2018-05-26T10:24:54.375Z,27.16
2018-05-26T10:27:22.560Z,27.29
2018-05-26T10:29:50.748Z,27.30
2018-05-26T10:32:18.907Z,27.28
2018-05-26T10:34:47.119Z,27.39
2018-05-26T10:37:15.283Z,27.40
2018-05-26T10:39:43.464Z,27.45
2018-05-26T10:42:11.616Z,27.43
2018-05-26T10:44:39.904Z,27.47
2018-05-26T10:47:08.115Z,27.39
2018-05-26T10:49:36.274Z,27.41
2018-05-26T10:52:04.451Z,27.54
2018-05-26T10:54:32.651Z,27.67
2018-05-26T10:57:00.839Z,27.85
2018-05-26T10:59:28.979Z,27.92
2018-05-26T11:01:57.200Z,28.00
2018-05-26T11:04:25.381Z,27.97
2018-05-26T11:06:53.584Z,28.06
2018-05-26T11:09:21.744Z,28.06
2018-05-26T11:11:49.938Z,28.15
2018-05-26T11:14:18.092Z,28.23
2018-05-26T11:16:46.286Z,28.31
2018-05-26T11:19:14.485Z,28.35
2018-05-26T11:21:42.660Z,28.45
2018-05-26T11:24:10.926Z,28.59
2018-05-26T11:26:39.003Z,28.63
2018-05-26T11:29:07.211Z,28.66
2018-05-26T11:31:35.371Z,28.69
2018-05-26T11:34:03.547Z,28.69
2018-05-26T11:36:31.704Z,28.82
2018-05-26T11:38:59.911Z,28.96
2018-05-26T11:41:28.108Z,29.11
2018-05-26T11:43:56.251Z,29.22
2018-05-26T11:46:24.457Z,29.58
2018-05-26T11:48:52.605Z,30.08
2018-05-26T11:51:20.778Z,30.68
2018-05-26T11:53:48.951Z,31.25
2018-05-26T11:56:17.123Z,31.86
2018-05-26T11:58:45.268Z,32.10
2018-05-26T12:01:13.431Z,32.10
2018-05-26T12:03:41.616Z,32.08
2018-05-26T12:06:09.749Z,32.68
2018-05-26T12:08:38.038Z,32.53
2018-05-26T12:11:06.277Z,32.85
2018-05-26T12:13:34.427Z,33.04
2018-05-26T12:16:02.598Z,33.34
2018-05-26T12:18:30.752Z,33.56
2018-05-26T12:20:59.013Z,33.39
2018-05-26T12:23:27.273Z,33.26
2018-05-26T12:25:55.994Z,33.13
2018-05-26T12:28:24.175Z,33.43
2018-05-26T12:30:52.362Z,34.04
2018-05-26T12:33:20.620Z,34.59
2018-05-26T12:35:48.778Z,34.69
2018-05-26T12:38:16.950Z,34.84
2018-05-26T12:40:45.115Z,34.58
2018-05-26T12:43:13.311Z,34.82
2018-05-26T12:45:41.526Z,34.90
2018-05-26T12:48:09.703Z,34.88
2018-05-26T12:50:37.905Z,34.85
2018-05-26T12:53:06.063Z,35.03
2018-05-26T12:55:34.249Z,35.26
2018-05-26T12:58:02.417Z,35.50
2018-05-26T13:00:30.595Z,35.31
2018-05-26T13:02:58.785Z,35.05
2018-05-26T13:05:26.974Z,35.27
2018-05-26T13:07:55.186Z,35.15
2018-05-26T13:10:23.373Z,34.82
2018-05-26T13:12:51.547Z,34.74
2018-05-26T13:15:19.716Z,34.68
2018-05-26T13:17:47.922Z,34.77
2018-05-26T13:20:16.103Z,34.97
2018-05-26T13:22:44.292Z,34.85
2018-05-26T13:25:12.445Z,34.85
2018-05-26T13:27:40.651Z,34.96
2018-05-26T13:30:08.813Z,35.19
2018-05-26T13:32:37.065Z,35.18
2018-05-26T13:35:05.254Z,34.98
2018-05-26T13:37:33.463Z,35.04
2018-05-26T13:40:01.658Z,34.84
2018-05-26T13:42:29.831Z,34.91
2018-05-26T13:44:58.021Z,34.93
2018-05-26T13:47:26.191Z,35.05
2018-05-26T13:49:54.395Z,35.17
2018-05-26T13:52:22.580Z,35.18
2018-05-26T13:54:50.714Z,35.31
2018-05-26T13:57:18.904Z,35.58
2018-05-26T13:59:47.094Z,36.05
2018-05-26T14:02:15.283Z,35.89
2018-05-26T14:04:43.459Z,35.72
2018-05-26T14:07:11.662Z,35.81
2018-05-26T14:09:39.865Z,36.01
2018-05-26T14:12:08.035Z,36.01
2018-05-26T14:14:36.226Z,36.24
2018-05-26T14:17:04.391Z,35.95
2018-05-26T14:19:32.569Z,36.13
2018-05-26T14:22:00.743Z,36.06
2018-05-26T14:24:31.748Z,36.36
2018-05-26T14:26:59.920Z,36.58
2018-05-26T14:29:28.090Z,36.14
2018-05-26T14:31:56.263Z,36.17
2018-05-26T14:34:24.456Z,35.92
2018-05-26T14:36:52.621Z,35.42
2018-05-26T14:39:20.796Z,35.49
2018-05-26T14:41:48.994Z,35.94
2018-05-26T14:44:17.177Z,36.45
2018-05-26T14:46:45.368Z,36.72
2018-05-26T14:49:13.522Z,36.97
2018-05-26T14:51:41.716Z,36.76
2018-05-26T14:54:09.916Z,36.28
2018-05-26T14:56:38.081Z,35.91
2018-05-26T14:59:06.247Z,35.86
2018-05-26T15:01:34.458Z,36.08
2018-05-26T15:04:02.645Z,36.13
2018-05-26T15:06:30.831Z,36.33
2018-05-26T15:08:58.998Z,36.43
2018-05-26T15:11:27.207Z,36.43
2018-05-26T15:13:55.381Z,36.20
2018-05-26T15:16:23.564Z,35.85
2018-05-26T15:18:51.710Z,35.70
2018-05-26T15:21:19.973Z,35.57
2018-05-26T15:23:48.120Z,34.93
2018-05-26T15:26:16.279Z,34.73
2018-05-26T15:28:44.490Z,34.50
2018-05-26T15:31:12.709Z,34.25
2018-05-26T15:33:40.879Z,34.05
2018-05-26T15:36:09.049Z,33.82
2018-05-26T15:38:37.268Z,33.69
2018-05-26T15:41:05.429Z,33.58
2018-05-26T15:43:33.604Z,33.67
2018-05-26T15:46:01.772Z,33.51
2018-05-26T15:48:29.927Z,33.61
2018-05-26T15:50:58.127Z,33.56
2018-05-26T15:53:26.283Z,33.41
2018-05-26T15:55:54.479Z,33.31
2018-05-26T15:58:22.727Z,33.06
2018-05-26T16:00:50.898Z,32.81
2018-05-26T16:03:19.080Z,32.68
2018-05-26T16:05:47.254Z,32.44
2018-05-26T16:08:15.428Z,32.20
2018-05-26T16:10:43.570Z,31.98
2018-05-26T16:13:11.763Z,31.94
2018-05-26T16:15:39.899Z,31.96
2018-05-26T16:18:08.081Z,31.89
2018-05-26T16:20:36.393Z,31.66
2018-05-26T16:23:04.572Z,31.56
2018-05-26T16:25:32.759Z,31.51
2018-05-26T16:28:00.898Z,31.59
2018-05-26T16:30:29.100Z,31.64
2018-05-26T16:32:57.251Z,31.63
2018-05-26T16:35:25.460Z,31.63
2018-05-26T16:37:53.628Z,31.70
2018-05-26T16:40:21.825Z,31.80
2018-05-26T16:42:50.004Z,31.93
2018-05-26T16:45:18.191Z,31.99
2018-05-26T16:47:46.326Z,32.07
2018-05-26T16:50:14.547Z,32.07
2018-05-26T16:52:42.721Z,31.95
2018-05-26T16:55:10.887Z,31.79
2018-05-26T16:57:39.091Z,31.63
2018-05-26T17:00:07.274Z,31.45
2018-05-26T17:02:35.575Z,31.31
2018-05-26T17:07:31.077Z,31.20
2018-05-26T17:09:59.236Z,31.17
2018-05-26T17:12:27.391Z,31.21
2018-05-26T17:14:55.604Z,31.22
2018-05-26T17:17:23.775Z,31.17
2018-05-26T17:19:51.968Z,31.06
2018-05-26T17:22:20.125Z,31.04
2018-05-26T17:24:48.307Z,31.05
2018-05-26T17:27:16.452Z,30.99
2018-05-26T17:29:44.605Z,30.90
2018-05-26T17:32:12.783Z,30.87
2018-05-26T17:34:40.974Z,30.84
2018-05-26T17:37:09.180Z,30.83
2018-05-26T17:39:38.742Z,30.71
2018-05-26T17:42:06.930Z,30.67
2018-05-26T17:44:35.124Z,30.59
2018-05-26T17:47:03.294Z,30.54
2018-05-26T17:49:31.494Z,30.52
2018-05-26T17:51:59.641Z,30.49
2018-05-26T17:54:27.779Z,30.55
2018-05-26T17:56:55.997Z,30.51
2018-05-26T17:59:24.131Z,30.49
2018-05-26T18:01:52.325Z,30.49
2018-05-26T18:04:20.504Z,30.47
2018-05-26T18:06:48.644Z,30.44
2018-05-26T18:09:16.815Z,30.32
2018-05-26T18:11:45.065Z,30.22
2018-05-26T18:14:13.237Z,30.17
2018-05-26T18:16:41.502Z,30.03
2018-05-26T18:19:09.639Z,30.00
2018-05-26T18:21:37.824Z,30.02
2018-05-26T18:24:06.469Z,29.94
2018-05-26T18:26:34.655Z,29.81
2018-05-26T18:29:02.806Z,29.82
2018-05-26T18:31:31.011Z,29.67
2018-05-26T18:33:59.215Z,29.63
2018-05-26T18:36:27.474Z,29.57
2018-05-26T18:38:55.625Z,29.46
2018-05-26T18:41:23.803Z,29.34
2018-05-26T18:43:52.016Z,29.25
2018-05-26T18:46:20.184Z,29.14
2018-05-26T18:48:48.419Z,29.05
2018-05-26T18:51:16.548Z,28.98
2018-05-26T18:53:44.730Z,28.87
2018-05-26T18:56:12.907Z,28.79
2018-05-26T18:58:41.059Z,28.71
2018-05-26T19:01:09.262Z,28.61
2018-05-26T19:03:37.418Z,28.52
2018-05-26T19:06:05.683Z,28.44
2018-05-26T19:08:33.830Z,28.31
2018-05-26T19:11:02.028Z,28.22
2018-05-26T19:13:30.199Z,28.21
2018-05-26T19:15:58.458Z,28.16
2018-05-26T19:18:26.586Z,28.06
2018-05-26T19:20:54.737Z,27.96
2018-05-26T19:23:22.924Z,27.85
2018-05-26T19:25:51.093Z,27.77
2018-05-26T19:28:19.296Z,27.71
2018-05-26T19:30:47.471Z,27.63
2018-05-26T19:33:15.685Z,27.57
2018-05-26T19:35:43.875Z,27.48
2018-05-26T19:38:12.047Z,27.42
2018-05-26T19:40:40.233Z,27.30
2018-05-26T19:43:08.418Z,27.22
2018-05-26T19:45:36.672Z,27.14
2018-05-26T19:48:04.828Z,27.07
2018-05-26T19:50:33.007Z,27.00
2018-05-26T19:53:01.192Z,26.95
2018-05-26T19:55:29.360Z,26.87
2018-05-26T19:57:57.552Z,26.82
2018-05-26T20:00:25.698Z,26.77
2018-05-26T20:02:53.901Z,26.72
2018-05-26T20:05:22.151Z,26.65
2018-05-26T20:07:50.287Z,26.63
2018-05-26T20:10:18.469Z,26.58
2018-05-26T20:12:46.616Z,26.53
2018-05-26T20:15:14.815Z,26.46
2018-05-26T20:17:42.953Z,26.42
2018-05-26T20:20:11.141Z,26.40
2018-05-26T20:22:39.307Z,26.31
2018-05-26T20:25:07.456Z,26.29
2018-05-26T20:27:35.634Z,26.19
2018-05-26T20:30:03.792Z,26.16
2018-05-26T20:32:31.967Z,26.10
2018-05-26T20:35:00.117Z,26.05
2018-05-26T20:37:28.316Z,26.02
2018-05-26T20:39:56.497Z,25.94
2018-05-26T20:42:24.724Z,25.90
2018-05-26T20:44:52.874Z,25.86
2018-05-26T20:47:21.025Z,25.83
2018-05-26T20:49:49.213Z,25.79
2018-05-26T20:52:17.355Z,25.75
2018-05-26T20:54:45.536Z,25.69
2018-05-26T20:57:13.700Z,25.65
2018-05-26T20:59:41.841Z,25.61
2018-05-26T21:02:10.014Z,25.60
2018-05-26T21:04:38.158Z,25.57
2018-05-26T21:07:06.369Z,25.54
2018-05-26T21:09:34.553Z,25.48
2018-05-26T21:12:02.736Z,25.45
2018-05-26T21:14:30.900Z,25.42
2018-05-26T21:16:59.059Z,25.37
2018-05-26T21:19:27.235Z,25.33
2018-05-26T21:21:55.381Z,25.28
2018-05-26T21:24:23.568Z,25.27
2018-05-26T21:26:51.729Z,25.26
2018-05-26T21:29:19.941Z,25.26
2018-05-26T21:31:48.129Z,25.24
2018-05-26T21:34:16.725Z,25.20
2018-05-26T21:36:44.928Z,25.17
2018-05-26T21:39:13.066Z,25.14
2018-05-26T21:41:41.225Z,25.10
2018-05-26T21:44:09.396Z,25.05
2018-05-26T21:46:37.566Z,25.02
2018-05-26T21:49:05.751Z,24.99
2018-05-26T21:51:33.891Z,24.96
2018-05-26T21:54:02.084Z,24.91
2018-05-26T21:56:30.333Z,24.88
2018-05-26T21:58:58.518Z,24.86
2018-05-26T22:01:26.700Z,24.80
2018-05-26T22:03:54.886Z,24.78
2018-05-26T22:06:23.063Z,24.76
2018-05-26T22:08:51.244Z,24.71
2018-05-26T22:11:19.434Z,24.65
2018-05-26T22:13:47.602Z,24.64
2018-05-26T22:16:15.804Z,24.61
2018-05-26T22:18:44.001Z,24.57
2018-05-26T22:21:12.174Z,24.57
2018-05-26T22:23:40.412Z,24.52
2018-05-26T22:26:08.571Z,24.48
2018-05-26T22:28:36.769Z,24.46
2018-05-26T22:31:04.940Z,24.45
2018-05-26T22:33:33.120Z,24.45
2018-05-26T22:36:01.275Z,24.42
2018-05-26T22:38:29.519Z,24.42
2018-05-26T22:40:57.667Z,24.41
2018-05-26T22:43:25.823Z,24.41
2018-05-26T22:45:54.018Z,24.44
2018-05-26T22:48:22.181Z,24.51
2018-05-26T22:50:50.358Z,24.48
2018-05-26T22:53:18.531Z,24.48
2018-05-26T22:55:46.740Z,24.46
2018-05-26T22:58:14.909Z,24.45
2018-05-26T23:00:43.043Z,24.43
2018-05-26T23:03:11.230Z,24.40
2018-05-26T23:05:39.385Z,24.37
2018-05-26T23:08:07.529Z,24.36
2018-05-26T23:10:35.713Z,24.32
2018-05-26T23:13:03.865Z,24.32
2018-05-26T23:15:32.062Z,24.30
2018-05-26T23:18:00.252Z,24.23
2018-05-26T23:20:28.423Z,24.18
2018-05-26T23:22:56.621Z,24.15
2018-05-26T23:25:24.775Z,24.12
2018-05-26T23:27:52.935Z,24.06
2018-05-26T23:30:21.107Z,24.03
2018-05-26T23:32:49.260Z,24.01
2018-05-26T23:35:17.432Z,23.95
2018-05-26T23:37:45.620Z,23.90
2018-05-26T23:40:13.799Z,23.85
2018-05-26T23:42:41.939Z,23.83
2018-05-26T23:45:10.116Z,23.81
2018-05-26T23:47:38.318Z,23.78
2018-05-26T23:50:06.493Z,23.74
2018-05-26T23:52:34.702Z,23.72
2018-05-26T23:55:02.864Z,23.68
2018-05-26T23:57:31.041Z,23.66
2018-05-26T23:59:59.252Z,23.63
